createdAt,value
2019-05-03T00:02:22.531Z,17.97
2019-05-03T00:04:51.715Z,18.77
2019-05-03T00:07:18.210Z,18.57
2019-05-03T00:09:44.527Z,17.90
2019-05-03T00:12:12.652Z,18.87
2019-05-03T00:14:41.674Z,18.60
2019-05-03T00:17:08.094Z,19.80
2019-05-03T00:19:34.540Z,19.97
2019-05-03T00:22:02.111Z,18.97
2019-05-03T00:24:28.563Z,20.83
2019-05-03T00:26:54.694Z,17.47
2019-05-03T00:29:22.038Z,18.37
2019-05-03T00:31:48.535Z,23.73
2019-05-03T00:34:28.650Z,17.27
2019-05-03T00:36:56.645Z,18.93
2019-05-03T00:39:32.510Z,21.43
2019-05-03T00:41:58.880Z,18.70
2019-05-03T00:44:25.212Z,18.10
2019-05-03T00:46:51.881Z,21.90
2019-05-03T00:49:18.245Z,19.13
2019-05-03T00:51:44.461Z,20.43
2019-05-03T00:54:12.630Z,20.77
2019-05-03T00:56:38.996Z,19.63
2019-05-03T00:59:05.333Z,20.57
2019-05-03T01:01:32.071Z,23.57
2019-05-03T01:03:58.432Z,20.23
2019-05-03T01:06:24.641Z,19.97
2019-05-03T01:08:52.301Z,21.73
2019-05-03T01:11:18.899Z,25.53
2019-05-03T01:13:45.057Z,23.93
2019-05-03T01:16:15.847Z,24.37
2019-05-03T01:18:43.265Z,23.93
2019-05-03T01:21:11.589Z,19.73
2019-05-03T01:23:37.730Z,21.03
2019-05-03T01:26:04.028Z,24.77
2019-05-03T01:28:32.175Z,23.33
2019-05-03T01:30:58.309Z,28.10
2019-05-03T01:33:24.485Z,28.20
2019-05-03T01:35:51.900Z,26.33
2019-05-03T01:38:19.501Z,24.93
2019-05-03T01:40:46.971Z,25.70
2019-05-03T01:43:13.275Z,27.67
2019-05-03T01:45:39.511Z,25.03
2019-05-03T01:48:10.255Z,25.97
2019-05-03T01:50:47.341Z,24.90
2019-05-03T01:53:15.391Z,27.87
2019-05-03T01:55:52.331Z,24.63
2019-05-03T01:58:22.505Z,20.80
2019-05-03T02:00:54.828Z,22.30
2019-05-03T02:03:25.841Z,21.53
2019-05-03T02:05:53.902Z,22.13
2019-05-03T02:08:21.965Z,22.33
2019-05-03T02:10:48.343Z,20.53
2019-05-03T02:13:14.645Z,20.73
2019-05-03T02:15:42.163Z,26.70
2019-05-03T02:18:08.748Z,20.10
2019-05-03T02:20:34.950Z,16.57
2019-05-03T02:23:02.808Z,19.80
2019-05-03T02:25:29.209Z,22.77
2019-05-03T02:27:55.444Z,21.73
2019-05-03T02:30:24.711Z,20.70
2019-05-03T02:32:49.788Z,19.87
2019-05-03T02:35:15.980Z,20.70
2019-05-03T02:37:44.128Z,19.83
2019-05-03T02:40:12.985Z,24.27
2019-05-03T02:42:39.568Z,21.13
2019-05-03T02:45:08.821Z,22.90
2019-05-03T02:47:39.569Z,21.70
2019-05-03T02:50:07.876Z,21.30
2019-05-03T02:52:36.636Z,21.97
2019-05-03T02:55:06.435Z,25.43
2019-05-03T02:57:35.039Z,23.10
2019-05-03T03:00:01.358Z,26.57
2019-05-03T03:02:28.169Z,23.63
2019-05-03T03:04:56.331Z,23.10
2019-05-03T03:07:25.641Z,23.77
2019-05-03T03:09:51.879Z,22.40
2019-05-03T03:12:20.346Z,23.23
2019-05-03T03:14:47.554Z,28.83
2019-05-03T03:17:20.106Z,22.17
2019-05-03T03:19:47.422Z,22.23
2019-05-03T03:22:16.414Z,24.67
2019-05-03T03:24:46.497Z,26.43
2019-05-03T03:27:16.673Z,23.93
2019-05-03T03:29:46.542Z,25.97
2019-05-03T03:32:18.518Z,22.47
2019-05-03T03:34:56.959Z,21.10
2019-05-03T03:37:19.692Z,25.07
2019-05-03T03:39:46.333Z,24.57
2019-05-03T03:42:15.827Z,21.77
2019-05-03T03:44:41.862Z,27.97
2019-05-03T03:47:10.158Z,24.03
2019-05-03T03:49:37.368Z,22.87
2019-05-03T03:52:06.171Z,24.87
2019-05-03T03:54:35.238Z,25.00
2019-05-03T03:57:08.188Z,22.60
2019-05-03T03:59:36.371Z,24.70
2019-05-03T04:02:02.602Z,23.83
2019-05-03T04:04:29.656Z,25.63
2019-05-03T04:07:00.834Z,26.47
2019-05-03T04:09:25.524Z,22.50
2019-05-03T04:11:52.312Z,24.27
2019-05-03T04:14:26.391Z,25.97
2019-05-03T04:17:11.558Z,24.10
2019-05-03T04:19:40.055Z,23.30
2019-05-03T04:22:06.444Z,27.33
2019-05-03T04:24:35.155Z,26.13
2019-05-03T04:27:15.684Z,22.40
2019-05-03T04:29:35.617Z,21.97
2019-05-03T04:32:06.058Z,23.50
2019-05-03T04:34:32.419Z,19.63
2019-05-03T04:36:58.575Z,18.17
2019-05-03T04:39:25.606Z,23.77
2019-05-03T04:41:52.211Z,20.80
2019-05-03T04:44:18.517Z,21.47
2019-05-03T04:46:46.488Z,19.57
2019-05-03T04:49:15.160Z,19.67
2019-05-03T04:51:41.197Z,21.97
2019-05-03T04:54:26.049Z,22.17
2019-05-03T04:56:52.321Z,21.47
2019-05-03T04:59:18.515Z,22.57
2019-05-03T05:01:46.096Z,25.17
2019-05-03T05:04:12.624Z,19.27
2019-05-03T05:06:38.943Z,22.30
2019-05-03T05:09:06.154Z,23.77
2019-05-03T05:11:34.934Z,18.30
2019-05-03T05:14:00.672Z,22.13
2019-05-03T05:16:26.994Z,20.83
2019-05-03T05:18:56.026Z,19.53
2019-05-03T05:21:30.053Z,20.07
2019-05-03T05:23:58.212Z,21.20
2019-05-03T05:26:27.517Z,23.77
2019-05-03T05:28:58.489Z,22.97
2019-05-03T05:31:25.447Z,18.63
2019-05-03T05:33:52.017Z,22.50
2019-05-03T05:36:18.203Z,18.03
2019-05-03T05:38:45.049Z,26.13
2019-05-03T05:41:11.442Z,17.00
2019-05-03T05:43:37.665Z,21.70
2019-05-03T05:46:05.320Z,19.90
2019-05-03T05:48:36.734Z,21.50
2019-05-03T05:51:04.464Z,19.20
2019-05-03T05:53:30.731Z,17.20
2019-05-03T05:55:58.718Z,20.27
2019-05-03T05:58:26.925Z,19.27
2019-05-03T06:01:05.499Z,17.43
2019-05-03T06:03:31.897Z,19.57
2019-05-03T06:05:59.872Z,22.47
2019-05-03T06:08:35.413Z,20.47
2019-05-03T06:11:09.525Z,22.57
2019-05-03T06:13:37.558Z,19.30
2019-05-03T06:16:08.858Z,19.40
2019-05-03T06:18:39.836Z,21.43
2019-05-03T06:21:08.140Z,19.57
2019-05-03T06:23:45.425Z,21.27
2019-05-03T06:26:30.116Z,20.73
2019-05-03T06:28:56.934Z,20.53
2019-05-03T06:31:27.666Z,23.17
2019-05-03T06:33:55.358Z,21.40
2019-05-03T06:36:21.557Z,23.87
2019-05-03T06:38:47.713Z,22.20
2019-05-03T06:41:15.078Z,18.57
2019-05-03T06:43:44.994Z,17.43
2019-05-03T06:46:09.638Z,17.57
2019-05-03T06:48:35.720Z,18.33
2019-05-03T06:51:08.822Z,21.83
2019-05-03T06:53:29.963Z,17.67
2019-05-03T06:55:56.164Z,14.93
2019-05-03T06:58:31.378Z,18.40
2019-05-03T07:00:59.334Z,25.50
2019-05-03T07:03:27.445Z,19.43
2019-05-03T07:06:14.999Z,14.50
2019-05-03T07:08:58.268Z,20.53
2019-05-03T07:11:24.809Z,18.63
2019-05-03T07:13:51.060Z,13.10
2019-05-03T07:16:17.399Z,16.23
2019-05-03T07:18:45.499Z,18.43
2019-05-03T07:21:11.627Z,18.33
2019-05-03T07:23:37.759Z,14.80
2019-05-03T07:26:05.424Z,12.63
2019-05-03T07:28:44.405Z,16.60
2019-05-03T07:30:59.854Z,15.53
2019-05-03T07:33:27.981Z,15.93
2019-05-03T07:35:54.799Z,15.00
2019-05-03T07:38:21.189Z,16.43
2019-05-03T07:40:47.295Z,18.27
2019-05-03T07:43:14.883Z,13.97
2019-05-03T07:45:41.406Z,20.40
2019-05-03T07:48:07.530Z,15.20
2019-05-03T07:50:35.754Z,15.70
2019-05-03T07:53:04.497Z,20.43
2019-05-03T07:55:50.589Z,14.77
2019-05-03T07:58:21.449Z,17.47
2019-05-03T08:01:02.477Z,19.13
2019-05-03T08:03:17.264Z,19.40
2019-05-03T08:05:45.393Z,17.57
2019-05-03T08:08:11.874Z,16.63
2019-05-03T08:10:38.182Z,18.50
2019-05-03T08:13:04.781Z,17.20
2019-05-03T08:15:31.199Z,16.73
2019-05-03T08:17:57.331Z,21.03
2019-05-03T08:20:24.851Z,17.00
2019-05-03T08:22:51.211Z,15.47
2019-05-03T08:25:17.447Z,16.80
2019-05-03T08:27:44.637Z,14.23
2019-05-03T08:30:14.778Z,12.80
2019-05-03T08:32:48.597Z,14.47
2019-05-03T08:35:19.699Z,14.90
2019-05-03T08:37:47.720Z,16.77
2019-05-03T08:40:15.617Z,15.33
2019-05-03T08:42:42.147Z,11.57
2019-05-03T08:45:08.462Z,16.73
2019-05-03T08:47:34.583Z,13.43
2019-05-03T08:50:00.679Z,15.80
2019-05-03T08:52:27.002Z,14.10
2019-05-03T08:54:55.085Z,19.37
2019-05-03T08:57:21.399Z,13.77
2019-05-03T08:59:47.605Z,12.97
2019-05-03T09:02:16.677Z,11.87
2019-05-03T09:04:43.253Z,14.27
2019-05-03T09:07:10.238Z,13.93
2019-05-03T09:09:41.391Z,19.07
2019-05-03T09:12:07.627Z,13.60
2019-05-03T09:14:42.449Z,14.27
2019-05-03T09:17:02.282Z,15.80
2019-05-03T09:19:28.463Z,13.47
2019-05-03T09:21:54.949Z,14.83
2019-05-03T09:24:21.201Z,19.63
2019-05-03T09:26:47.434Z,17.20
2019-05-03T09:29:14.813Z,16.90
2019-05-03T09:31:41.037Z,16.50
2019-05-03T09:34:08.343Z,17.33
2019-05-03T09:36:35.282Z,15.10
2019-05-03T09:39:01.382Z,15.23
2019-05-03T09:41:29.607Z,14.63
2019-05-03T09:43:55.815Z,13.80
2019-05-03T09:46:24.271Z,10.50
2019-05-03T09:48:50.347Z,14.43
2019-05-03T09:51:16.554Z,16.10
2019-05-03T09:53:50.396Z,16.70
2019-05-03T09:56:18.588Z,13.80
2019-05-03T09:58:46.147Z,15.03
2019-05-03T10:01:12.358Z,16.40
2019-05-03T10:03:38.450Z,11.67
2019-05-03T10:06:04.777Z,13.53
2019-05-03T10:08:31.065Z,14.60
2019-05-03T10:11:09.168Z,13.87
2019-05-03T10:13:35.784Z,14.80
2019-05-03T10:16:02.582Z,13.20
2019-05-03T10:18:28.908Z,13.03
2019-05-03T10:20:56.293Z,13.10
2019-05-03T10:23:36.531Z,11.80
2019-05-03T10:26:05.076Z,10.67
2019-05-03T10:28:31.614Z,8.80
2019-05-03T10:30:58.611Z,11.80
2019-05-03T10:33:30.308Z,9.83
2019-05-03T10:35:56.773Z,12.50
2019-05-03T10:38:24.601Z,13.83
2019-05-03T10:40:51.031Z,12.30
2019-05-03T10:43:17.431Z,11.80
2019-05-03T10:45:44.968Z,13.77
2019-05-03T10:48:12.667Z,11.37
2019-05-03T10:50:38.905Z,11.33
2019-05-03T10:53:07.275Z,12.43
2019-05-03T10:55:35.637Z,12.50
2019-05-03T10:58:12.642Z,15.17
2019-05-03T11:00:46.201Z,12.83
2019-05-03T11:03:11.979Z,13.53
2019-05-03T11:05:38.225Z,10.50
2019-05-03T11:08:05.037Z,9.53
2019-05-03T11:10:31.437Z,9.07
2019-05-03T11:12:57.575Z,11.53
2019-05-03T11:15:25.942Z,13.00
2019-05-03T11:17:51.793Z,14.57
2019-05-03T11:20:29.090Z,11.27
2019-05-03T11:22:54.714Z,13.67
2019-05-03T11:25:20.853Z,11.60
2019-05-03T11:27:48.994Z,11.97
2019-05-03T11:30:16.709Z,15.13
2019-05-03T11:32:44.881Z,11.87
2019-05-03T11:35:18.901Z,11.80
2019-05-03T11:37:46.936Z,8.53
2019-05-03T11:40:15.562Z,13.00
2019-05-03T11:42:41.735Z,9.17
2019-05-03T11:45:08.285Z,9.43
2019-05-03T11:47:34.885Z,14.17
2019-05-03T11:50:01.918Z,13.87
2019-05-03T11:52:28.068Z,12.53
2019-05-03T11:54:55.287Z,13.00
2019-05-03T11:57:26.604Z,11.40
2019-05-03T11:59:54.846Z,9.37
2019-05-03T12:02:24.766Z,12.43
2019-05-03T12:04:51.148Z,12.17
2019-05-03T12:07:19.236Z,12.00
2019-05-03T12:09:45.398Z,10.40
2019-05-03T12:12:15.187Z,9.60
2019-05-03T12:14:41.492Z,12.60
2019-05-03T12:17:18.239Z,11.87
2019-05-03T12:19:38.828Z,12.33
2019-05-03T12:22:06.555Z,10.20
2019-05-03T12:24:35.858Z,10.27
2019-05-03T12:27:01.428Z,12.37
2019-05-03T12:29:27.635Z,6.77
2019-05-03T12:31:54.845Z,9.10
2019-05-03T12:34:21.156Z,11.33
2019-05-03T12:36:47.413Z,9.60
2019-05-03T12:39:24.357Z,10.00
2019-05-03T12:41:41.849Z,10.57
2019-05-03T12:44:08.019Z,11.83
2019-05-03T12:46:35.393Z,13.77
2019-05-03T12:49:01.622Z,9.13
2019-05-03T12:51:27.918Z,10.13
2019-05-03T12:53:55.190Z,8.97
2019-05-03T12:56:24.267Z,9.83
2019-05-03T12:58:57.339Z,12.03
2019-05-03T13:01:40.649Z,11.00
2019-05-03T13:04:16.431Z,9.33
2019-05-03T13:06:45.332Z,12.60
2019-05-03T13:09:12.221Z,10.13
2019-05-03T13:11:51.809Z,8.83
2019-05-03T13:14:08.728Z,14.53
2019-05-03T13:16:35.419Z,14.60
2019-05-03T13:19:01.639Z,11.40
2019-05-03T13:21:28.030Z,10.37
2019-05-03T13:23:54.821Z,11.60
2019-05-03T13:26:21.097Z,11.57
2019-05-03T13:28:47.303Z,9.13
2019-05-03T13:31:13.422Z,11.83
2019-05-03T13:33:39.754Z,10.13
2019-05-03T13:36:05.871Z,11.33
2019-05-03T13:38:31.980Z,12.07
2019-05-03T13:40:58.351Z,11.13
2019-05-03T13:43:24.575Z,11.13
2019-05-03T13:45:50.915Z,12.93
2019-05-03T13:48:20.906Z,12.30
2019-05-03T13:50:45.205Z,10.10
2019-05-03T13:53:11.445Z,11.23
2019-05-03T13:55:37.666Z,12.73
2019-05-03T13:58:05.204Z,13.20
2019-05-03T14:00:31.813Z,11.10
2019-05-03T14:02:58.172Z,9.47
2019-05-03T14:05:24.604Z,17.73
2019-05-03T14:07:50.862Z,17.23
2019-05-03T14:10:17.226Z,12.27
2019-05-03T14:12:45.475Z,11.77
2019-05-03T14:15:12.061Z,15.20
2019-05-03T14:17:38.419Z,11.87
2019-05-03T14:20:10.555Z,12.60
2019-05-03T14:22:38.759Z,11.57
2019-05-03T14:25:05.416Z,11.63
2019-05-03T14:27:31.638Z,11.17
2019-05-03T14:29:58.032Z,13.70
2019-05-03T14:32:26.688Z,10.77
2019-05-03T14:34:54.772Z,11.70
2019-05-03T14:37:21.011Z,16.07
2019-05-03T14:39:48.269Z,14.87
2019-05-03T14:42:15.334Z,11.00
2019-05-03T14:44:42.823Z,12.47
2019-05-03T14:47:10.187Z,10.87
2019-05-03T14:49:36.427Z,14.60
2019-05-03T14:52:05.404Z,11.07
2019-05-03T14:54:34.503Z,15.60
2019-05-03T14:57:17.961Z,12.20
2019-05-03T14:59:52.275Z,11.87
2019-05-03T15:02:20.403Z,14.43
2019-05-03T15:04:46.765Z,15.33
2019-05-03T15:07:15.228Z,16.00
2019-05-03T15:09:42.310Z,11.20
2019-05-03T15:12:08.998Z,14.63
2019-05-03T15:14:35.295Z,13.77
2019-05-03T15:17:01.532Z,13.33
2019-05-03T15:19:27.843Z,14.30
2019-05-03T15:21:54.800Z,15.07
2019-05-03T15:24:21.159Z,13.43
2019-05-03T15:26:47.555Z,10.67
2019-05-03T15:29:15.584Z,15.33
2019-05-03T15:31:41.918Z,14.87
2019-05-03T15:34:08.186Z,10.60
2019-05-03T15:36:34.591Z,14.20
2019-05-03T15:39:00.974Z,16.47
2019-05-03T15:41:27.242Z,12.00
2019-05-03T15:43:57.986Z,13.90
2019-05-03T15:46:35.054Z,11.50
2019-05-03T15:49:04.629Z,13.90
2019-05-03T15:51:31.119Z,13.27
2019-05-03T15:53:57.442Z,15.20
2019-05-03T15:56:25.277Z,13.77
2019-05-03T15:58:52.163Z,17.20
2019-05-03T16:01:18.321Z,15.20
2019-05-03T16:03:44.948Z,18.00
2019-05-03T16:06:11.419Z,11.53
2019-05-03T16:08:37.614Z,16.00
2019-05-03T16:11:05.403Z,13.23
2019-05-03T16:13:31.786Z,10.37
2019-05-03T16:15:57.994Z,13.50
2019-05-03T16:18:24.639Z,12.97
2019-05-03T16:20:51.188Z,14.63
2019-05-03T16:23:19.590Z,13.87
2019-05-03T16:25:45.923Z,12.53
2019-05-03T16:28:26.106Z,10.63
2019-05-03T16:30:55.551Z,12.43
2019-05-03T16:33:26.969Z,13.60
2019-05-03T16:35:50.115Z,12.90
2019-05-03T16:38:16.375Z,13.20
2019-05-03T16:40:42.784Z,10.73
2019-05-03T16:43:09.091Z,13.17
2019-05-03T16:45:35.549Z,11.70
2019-05-03T16:48:01.956Z,14.67
2019-05-03T16:50:28.784Z,12.37
2019-05-03T16:52:55.103Z,11.00
2019-05-03T16:55:21.410Z,9.70
2019-05-03T16:57:47.548Z,17.00
2019-05-03T17:00:17.637Z,9.63
2019-05-03T17:02:44.312Z,13.80
2019-05-03T17:05:15.669Z,10.17
2019-05-03T17:08:00.663Z,10.73
2019-05-03T17:10:41.049Z,11.33
2019-05-03T17:13:07.732Z,9.17
2019-05-03T17:15:35.315Z,11.17
2019-05-03T17:18:01.796Z,10.37
2019-05-03T17:20:28.411Z,14.77
2019-05-03T17:22:55.523Z,12.50
2019-05-03T17:25:21.731Z,10.03
2019-05-03T17:27:48.052Z,11.13
2019-05-03T17:30:14.448Z,10.17
2019-05-03T17:32:40.790Z,11.47
2019-05-03T17:35:07.165Z,12.93
2019-05-03T17:37:34.660Z,11.50
2019-05-03T17:40:03.144Z,11.33
2019-05-03T17:42:49.297Z,11.63
2019-05-03T17:45:17.471Z,14.27
2019-05-03T17:47:45.377Z,11.43
2019-05-03T17:50:14.691Z,13.87
2019-05-03T17:52:49.024Z,14.03
2019-05-03T17:55:17.197Z,13.93
2019-05-03T17:57:47.989Z,12.90
2019-05-03T18:00:34.845Z,13.27
2019-05-03T18:03:01.636Z,12.40
2019-05-03T18:05:35.964Z,14.37
2019-05-03T18:08:13.326Z,14.23
2019-05-03T18:10:41.726Z,15.40
2019-05-03T18:13:07.938Z,12.13
2019-05-03T18:15:34.559Z,12.37
2019-05-03T18:18:00.797Z,13.67
2019-05-03T18:20:27.147Z,11.30
2019-05-03T18:22:54.639Z,11.77
2019-05-03T18:25:21.205Z,15.60
2019-05-03T18:27:47.555Z,13.20
2019-05-03T18:30:14.298Z,16.70
2019-05-03T18:32:40.647Z,15.47
2019-05-03T18:35:06.935Z,13.13
2019-05-03T18:37:34.847Z,13.50
2019-05-03T18:40:01.313Z,16.23
2019-05-03T18:42:41.124Z,17.23
2019-05-03T18:45:10.103Z,14.23
2019-05-03T18:47:36.352Z,13.23
2019-05-03T18:50:07.065Z,14.53
2019-05-03T18:52:34.487Z,16.07
2019-05-03T18:55:00.754Z,12.40
2019-05-03T18:57:27.036Z,16.13
2019-05-03T18:59:55.444Z,16.07
2019-05-03T19:02:22.027Z,14.70
2019-05-03T19:04:49.770Z,15.97
2019-05-03T19:07:20.789Z,15.10
2019-05-03T19:09:55.421Z,16.50
2019-05-03T19:12:26.561Z,13.17
2019-05-03T19:14:54.621Z,17.90
2019-05-03T19:17:31.448Z,16.43
2019-05-03T19:19:59.363Z,16.17
2019-05-03T19:22:25.749Z,14.53
2019-05-03T19:24:52.230Z,15.57
2019-05-03T19:27:18.629Z,14.77
2019-05-03T19:29:45.110Z,18.67
2019-05-03T19:32:11.928Z,15.57
2019-05-03T19:34:47.839Z,18.20
2019-05-03T19:37:06.412Z,18.10
2019-05-03T19:39:34.586Z,17.17
2019-05-03T19:42:00.944Z,15.10
2019-05-03T19:44:27.253Z,16.93
2019-05-03T19:46:53.715Z,17.17
2019-05-03T19:49:20.316Z,17.13
2019-05-03T19:51:46.794Z,17.70
2019-05-03T19:54:14.664Z,15.23
2019-05-03T19:56:41.528Z,12.13
2019-05-03T19:59:10.687Z,15.57
2019-05-03T20:01:41.727Z,14.60
2019-05-03T20:04:26.755Z,15.23
2019-05-03T20:06:54.885Z,14.80
2019-05-03T20:09:24.489Z,17.47
2019-05-03T20:11:51.072Z,14.93
2019-05-03T20:14:17.569Z,16.40
2019-05-03T20:16:44.969Z,14.10
2019-05-03T20:19:18.836Z,19.40
2019-05-03T20:21:39.630Z,15.00
2019-05-03T20:24:06.087Z,15.50
2019-05-03T20:26:34.617Z,16.53
2019-05-03T20:29:00.456Z,17.93
2019-05-03T20:31:26.939Z,15.40
2019-05-03T20:33:54.866Z,16.40
2019-05-03T20:36:21.236Z,16.80
2019-05-03T20:38:47.573Z,16.07
2019-05-03T20:41:14.800Z,13.03
2019-05-03T20:43:44.558Z,15.90
2019-05-03T20:46:15.491Z,16.83
2019-05-03T20:48:44.776Z,14.97
2019-05-03T20:51:11.170Z,16.70
2019-05-03T20:53:37.627Z,15.57
2019-05-03T20:56:05.222Z,17.63
2019-05-03T20:58:32.886Z,17.37
2019-05-03T21:00:59.175Z,14.93
2019-05-03T21:03:25.495Z,18.13
2019-05-03T21:05:51.870Z,17.27
2019-05-03T21:08:18.179Z,19.77
2019-05-03T21:10:44.642Z,15.90
2019-05-03T21:13:11.154Z,19.93
2019-05-03T21:15:42.091Z,18.27
2019-05-03T21:18:10.356Z,19.77
2019-05-03T21:20:38.494Z,17.07
2019-05-03T21:23:06.824Z,16.27
2019-05-03T21:25:36.418Z,20.90
2019-05-03T21:28:04.684Z,15.87
2019-05-03T21:30:32.763Z,14.63
2019-05-03T21:32:59.125Z,17.73
2019-05-03T21:35:38.304Z,17.40
2019-05-03T21:37:54.393Z,15.83
2019-05-03T21:40:20.879Z,21.93
2019-05-03T21:42:47.120Z,17.13
2019-05-03T21:45:15.659Z,16.17
2019-05-03T21:47:54.692Z,17.77
2019-05-03T21:50:21.612Z,16.43
2019-05-03T21:52:47.824Z,18.07
2019-05-03T21:55:15.123Z,16.57
2019-05-03T21:57:41.541Z,16.57
2019-05-03T22:00:09.555Z,18.93
2019-05-03T22:02:39.005Z,19.17
2019-05-03T22:05:06.554Z,16.50
2019-05-03T22:07:34.905Z,15.60
2019-05-03T22:10:01.138Z,17.40
2019-05-03T22:12:27.481Z,19.13
2019-05-03T22:14:55.754Z,17.27
2019-05-03T22:17:40.350Z,15.90
2019-05-03T22:20:08.694Z,18.37
2019-05-03T22:22:49.006Z,19.30
2019-05-03T22:25:17.239Z,17.90
2019-05-03T22:27:45.373Z,17.17
2019-05-03T22:30:11.871Z,15.13
2019-05-03T22:32:37.987Z,18.13
2019-05-03T22:35:07.449Z,16.03
2019-05-03T22:37:35.442Z,17.43
2019-05-03T22:40:05.223Z,14.17
2019-05-03T22:42:31.290Z,18.33
2019-05-03T22:44:57.589Z,15.87
2019-05-03T22:47:25.315Z,17.70
2019-05-03T22:49:51.666Z,16.93
2019-05-03T22:52:17.902Z,14.23
2019-05-03T22:54:45.122Z,18.70
2019-05-03T22:57:11.714Z,15.67
2019-05-03T22:59:37.916Z,17.77
2019-05-03T23:02:04.250Z,14.63
2019-05-03T23:04:30.354Z,15.97
2019-05-03T23:06:56.607Z,15.60
2019-05-03T23:09:24.889Z,14.27
2019-05-03T23:11:51.412Z,17.40
2019-05-03T23:14:17.667Z,17.23
2019-05-03T23:16:44.866Z,15.17
2019-05-03T23:19:11.640Z,18.03
2019-05-03T23:21:39.898Z,19.20
2019-05-03T23:24:06.144Z,19.40
2019-05-03T23:26:34.863Z,17.73
2019-05-03T23:29:01.083Z,21.10
2019-05-03T23:31:27.385Z,16.93
2019-05-03T23:33:54.489Z,17.97
2019-05-03T23:36:32.790Z,16.93
2019-05-03T23:38:49.152Z,15.13
2019-05-03T23:41:15.502Z,17.43
2019-05-03T23:43:41.719Z,16.43
2019-05-03T23:46:08.900Z,19.73
2019-05-03T23:48:35.167Z,16.40
2019-05-03T23:51:01.450Z,17.33
2019-05-03T23:53:27.850Z,17.03
2019-05-03T23:56:05.177Z,17.87
2019-05-03T23:58:31.498Z,18.17
